Jamestown, ND

12:39 AM CDT on July 22, 2017 (GMT -0500)
West of Jamestown, ND | | Change Station
Active Advisory: Severe Thunderstorm Watch

Elev 1499 ft 46.89 °N, 98.75 °W | Updated 10 seconds ago

Partly Cloudy
Partly Cloudy
71.2 °F
Feels Like 77 °F
N
0.0
Wind Variable Wind from ENE
Gusts 0.0 mph

Today
High -- | Low -- °F
--% Chance of Precip.
Yesterday
High -- | Low -- °F
Precip. -- in
Pressure 29.77 in
Visibility 10.0 miles
Clouds Few 7000 ft
Heat Index 77 °F
Dew Point 43 °F
Humidity 36%
Rainfall 0.00 in
Snow Depth Not available.
6:03 AM 9:18 PM
Waning Crescent, 2% visible
METAR KJMS 220456Z AUTO 17007KT 10SM FEW070 23/18 A2980 RMK AO2 SLP079 T02280178
Pressure 29.77 in
Visibility 10.0 miles
Clouds Few 7000 ft
Heat Index 77 °F
Dew Point 43 °F
Humidity 36%
Rainfall 0.00 in
Snow Depth Not available.
6:03 AM 9:18 PM
Waning Crescent, 2% visible
METAR KJMS 220456Z AUTO 17007KT 10SM FEW070 23/18 A2980 RMK AO2 SLP079 T02280178

Get Your Daily Forecast Email!

Thanks for signing up!

Be on the lookout for a verification email in your inbox.

You'll start receiving severe weather alerts in your inbox..

×

10-Day Weather Forecast

Almanac

Astronomy

Jul. 22, 2017 Rise Set
Actual Time
Civil Twilight
Nautical Twilight
Astronomical Twilight
Moon
Length of Visible Light
Length of Day
Tomorrow will be .
, % of the Moon is Illuminated

Today's Extremes

State Highs State Lows

Community

WunderPhotos

Category 6

Welcome to Category 6. This is the collective home for Weather Underground's featured writeups by Dr. Jeff Masters (right), Bob Henson (left), Chris Burt, and other regular contributors.

Nearby

Air Quality

  Air Quality AQ Index Pollutant
Not available.

Snow Depth

Station Depth Elevation

Earthquake Activity

City Distance Mag. Time & Date
Minimum magnitude displayed is 2.5.

Coastal Water Temperatures

Place Temperature

Stations

Nearby Weather Stations

Station Location Temp. Windchill Dew Point Humidity Wind Precip. Elev Updated Type
                   

Watches & Warnings

Severe Thunderstorm Watch
Issued: 12:24 AM CDT Jul. 22, 2017 – National Weather Service

Severe Thunderstorm Watch 428 remains in effect until 100 am CDT

ND
. North Dakota counties included are

Burleigh Dickey Emmons
Foster Kidder LaMoure
Logan McHenry McIntosh
Pierce Rolette Sheridan
Stutsman Wells